Flight Track Log - Related Links

Times and Time Zones

All times are in EDT time to prevent confusion due to time zone crossing. See the SKW2696 flight status page for this flight to view local times or setup timezone preferences in your user account.

Time Position Orientation Groundspeed Altitude Reporting Facility
EDT Latitude Longitude Course Direction KTS MPH feet Rate Location/Type
Fri 06:22:21 PM 33.9333 -118.4500 270° West 169 194 1,800  Level Southern California TRACON
Fri 06:23:20 PM 33.9333 -118.5167 270° West 232 267 4,200 2,416 Climbing Southern California TRACON
Fri 06:23:38 PM 33.9269 -118.5433 254° West 227 261 4,900 2,550 Climbing Los Angeles Center
Fri 06:24:40 PM 33.9317 -118.6392 273° West 278 320 7,600 1,968 Climbing Los Angeles Center
Fri 06:25:43 PM 33.9911 -118.6889 325° Northwest 259 298 9,000 672 Climbing Los Angeles Center
Fri 06:26:45 PM 34.0594 -118.6961 355° North 276 318 9,000 242 Level Los Angeles Center
Fri 06:27:47 PM 34.1269 -118.6494 30° Northeast 273 314 9,500 1,355 Climbing Los Angeles Center
Fri 06:28:49 PM 34.2022 -118.6361 North 284 327 11,800 2,032 Climbing Los Angeles Center
Fri 06:29:51 PM 34.2814 -118.6578 347° North 289 333 13,700 1,694 Climbing Los Angeles Center
Fri 06:30:53 PM 34.3681 -118.6811 347° North 314 361 15,300 1,742 Climbing Los Angeles Center
Fri 06:31:55 PM 34.4742 -118.7100 347° North 325 374 17,300 1,742 Climbing Los Angeles Center
Fri 06:32:57 PM 34.5633 -118.7400 345° North 331 381 18,900 1,597 Climbing Los Angeles Center
Fri 06:33:59 PM 34.6492 -118.7844 337° Northwest 334 384 20,600 1,355 Climbing Los Angeles Center
Fri 06:35:01 PM 34.7356 -118.8278 338° Northwest 336 387 21,700 1,008 Climbing Los Angeles Center
Fri 06:36:04 PM 34.8247 -118.8706 339° North 343 395 22,700 960 Climbing Los Angeles Center
Fri 06:37:06 PM 34.9269 -118.9031 345° North 356 410 23,700 823 Climbing Los Angeles Center
Fri 06:38:08 PM 35.0236 -118.9364 344° North 362 417 24,400 823 Climbing Los Angeles Center
Fri 06:39:10 PM 35.1436 -118.9778 344° North 374 430 25,400 968 Climbing Los Angeles Center
Fri 06:40:12 PM 35.2439 -119.0122 344° North 377 434 26,400 871 Climbing Los Angeles Center
Fri 06:41:14 PM 35.3450 -119.0461 345° North 376 433 27,200 629 Climbing Los Angeles Center
Fri 06:42:16 PM 35.4444 -119.0817 344° North 374 430 27,700 532 Climbing Los Angeles Center
Fri 06:43:18 PM 35.5483 -119.1056 349° North 378 435 28,300 677 Climbing Los Angeles Center
Fri 06:44:20 PM 35.6575 -119.1194 354° North 388 447 29,100 732 Climbing Los Angeles Center
Fri 06:45:21 PM 35.7811 -119.1347 354° North 386 444 29,800 639 Climbing Oakland Center
Fri 06:46:22 PM 35.8886 -119.1506 353° North 388 447 30,400 732 Climbing Oakland Center
Fri 06:47:24 PM 35.9956 -119.1653 354° North 389 448 31,300 732 Climbing Oakland Center
Fri 06:48:25 PM 36.1014 -119.1794 354° North 391 450 31,900 344 Climbing Oakland Center
Fri 06:49:26 PM 36.2089 -119.1947 353° North 398 458 32,000 49 Climbing Oakland Center
Fri 06:50:28 PM 36.3183 -119.2108 353° North 403 464 32,000  Level Oakland Center
Fri 06:51:29 PM 36.4275 -119.2222 355° North 399 459 32,000  Level Oakland Center
Fri 06:52:31 PM 36.5369 -119.2378 353° North 398 458 32,000  Level Oakland Center
Fri 06:53:32 PM 36.6692 -119.2572 353° North 406 467 32,000  Level Oakland Center
Fri 06:54:33 PM 36.7786 -119.2739 353° North 405 466 32,000  Level Oakland Center
Fri 06:55:35 PM 36.8872 -119.2869 355° North 398 458 32,000  Level Oakland Center
Fri 06:56:36 PM 36.9978 -119.3033 353° North 403 464 32,000  Level Oakland Center
Fri 06:57:37 PM 37.1067 -119.3172 354° North 406 467 32,000  Level Oakland Center
Fri 06:58:39 PM 37.2150 -119.3339 353° North 402 463 32,000  Level Oakland Center
Fri 06:59:40 PM 37.3244 -119.3486 354° North 401 461 32,000 -295 Level Oakland Center
Fri 07:00:41 PM 37.4319 -119.3725 350° North 403 464 31,400 -780 Descending Oakland Center
Fri 07:01:43 PM 37.5383 -119.4008 348° North 396 456 30,400 -976 Descending Oakland Center
Fri 07:02:44 PM 37.6481 -119.4283 349° North 379 436 29,400 -984 Descending Oakland Center
Fri 07:03:45 PM 37.7539 -119.4583 347° North 386 444 28,400 -1,220 Descending Oakland Center
Fri 07:04:47 PM 37.8794 -119.4939 347° North 385 443 26,900 -1,463 Descending Oakland Center
Fri 07:05:48 PM 37.9861 -119.5247 347° North 389 448 25,400 -1,377 Descending Oakland Center
Fri 07:06:49 PM 38.0947 -119.5564 347° North 398 458 24,100 -683 Descending Oakland Center
Fri 07:07:51 PM 38.1981 -119.5856 347° North 388 447 24,000 -780 Descending Oakland Center
Fri 07:08:52 PM 38.2978 -119.6156 347° North 375 432 22,500 -1,672 Descending Oakland Center
Fri 07:09:53 PM 38.3939 -119.6431 347° North 361 415 20,600 -1,951 Descending Oakland Center
Fri 07:10:55 PM 38.4964 -119.6736 347° North 346 398 18,500 -1,854 Descending Oakland Center
Fri 07:11:56 PM 38.5889 -119.7017 347° North 342 394 16,800 -1,707 Descending Oakland Center
Fri 07:12:58 PM 38.6828 -119.7303 347° North 344 396 15,000 -1,317 Descending Oakland Center
Fri 07:13:59 PM 38.7736 -119.7581 347° North 340 391 14,100 -836 Descending Oakland Center
Fri 07:15:00 PM 38.8614 -119.7700 354° North 321 369 13,300 -537 Descending Oakland Center
Fri 07:16:02 PM 38.9533 -119.7697 360° North 324 373 13,000 -927 Descending Oakland Center
Fri 07:17:03 PM 39.0364 -119.7700 360° North 314 361 11,400 -1,659 Descending Oakland Center
Fri 07:18:05 PM 39.1147 -119.7697 360° North 300 345 9,600 -1,171 Descending Oakland Center
Fri 07:19:06 PM 39.1903 -119.7689 360° North 288 331 9,000 -541 Descending Oakland Center
Fri 07:20:07 PM 39.2658 -119.7667 North 277 319 8,500 -439 Descending Oakland Center
Fri 07:21:09 PM 39.3436 -119.7681 359° North 273 314 8,100 -750 Descending Oakland Center
Fri 07:22:07 PM 39.3833 -119.7667 North 165 190 7,000 -1,220 Descending Northern Cal TRACON
Fri 07:23:07 PM 39.4333 -119.7667 360° North 152 175 5,700 -1,100 Descending Northern Cal TRACON
Fri 07:24:07 PM 39.4667 -119.7667 360° North 156 180 4,800 -900 Descending Northern Cal TRACON
Fri 07:26:00 PM 39.4833 -119.7667 North  Level FlightAware Approximate

Login

Don't have an account? Register now (free) for customized features, flight alerts, and more!